Time;durP1;ratioP1;P1;durP2;ratioP2;P2;SDS_P1;SDS_P2;PMS_P1;PMS_P2;Temp;Humidity;BMP_temperature;BMP_pressure;BME280_temperature;BME280_humidity;BME280_pressure;Samples;Min_cycle;Max_cycle;Signal;HPM_P1;HPM_P2
2022/11/19 00:00:14;;;;;;;6.53;3.47;;;10.00;99.90;;;9.90;100.00;100063.88;5128992;28;20078;-86
2022/11/19 00:02:48;;;;;;;6.82;3.20;;;10.00;99.90;;;9.90;100.00;100071.69;5128613;29;20127;-86
2022/11/19 00:05:22;;;;;;;6.22;3.50;;;10.00;99.90;;;9.89;100.00;100065.59;5128922;28;20051;-86
2022/11/19 00:07:54;;;;;;;7.15;4.03;;;10.00;99.90;;;9.84;100.00;100071.53;5128203;28;20068;-86
2022/11/19 00:10:26;;;;;;;7.05;3.63;;;9.90;99.90;;;9.81;100.00;100067.13;5129053;29;20155;-86
2022/11/19 00:12:57;;;;;;;6.13;3.10;;;9.90;99.90;;;9.82;100.00;100066.28;5128710;28;20058;-87
2022/11/19 00:15:29;;;;;;;7.10;3.75;;;9.90;99.90;;;9.83;100.00;100069.78;5127925;28;20130;-86
2022/11/19 00:18:02;;;;;;;6.35;3.05;;;9.90;99.90;;;9.85;100.00;100066.38;5127323;28;20221;-87
2022/11/19 00:20:36;;;;;;;6.38;2.92;;;9.90;99.90;;;9.87;100.00;100056.88;5128468;29;20145;-87
2022/11/19 00:23:08;;;;;;;6.65;3.40;;;10.00;99.90;;;9.86;100.00;100055.13;5139015;28;20046;-86
2022/11/19 00:25:40;;;;;;;7.50;3.75;;;10.00;99.90;;;9.84;100.00;100055.91;5132695;28;20059;-86
2022/11/19 00:28:12;;;;;;;6.25;3.35;;;9.90;99.90;;;9.85;100.00;100055.97;5127988;28;20522;-87
2022/11/19 00:30:44;;;;;;;8.57;4.65;;;9.90;99.90;;;9.83;100.00;100055.03;5128718;28;20058;-87
2022/11/19 00:33:16;;;;;;;4.80;3.13;;;9.90;99.90;;;9.83;100.00;100049.84;5128678;28;20047;-88
2022/11/19 00:35:50;;;;;;;6.50;3.60;;;10.00;99.90;;;9.86;100.00;100049.06;5129171;28;20130;-84
2022/11/19 00:38:22;;;;;;;6.85;3.33;;;10.00;99.90;;;9.90;100.00;100056.06;5128860;28;20070;-86
2022/11/19 00:40:54;;;;;;;6.53;3.50;;;10.00;99.90;;;9.89;100.00;100052.59;5128696;28;20055;-86
2022/11/19 00:46:19;;;;;;;5.88;3.10;;;10.00;99.90;;;9.94;100.00;100053.59;5127750;29;20051;-86
2022/11/19 00:48:54;;;;;;;5.65;2.95;;;10.00;99.90;;;9.95;100.00;100059.69;5127772;28;20074;-88
2022/11/19 00:51:30;;;;;;;7.25;3.78;;;10.00;99.90;;;9.90;100.00;100059.56;5128154;28;20054;-87
2022/11/19 00:54:02;;;;;;;6.55;3.30;;;10.00;99.90;;;9.86;100.00;100055.13;5127956;29;20043;-87
2022/11/19 00:56:34;;;;;;;6.63;3.25;;;9.90;99.90;;;9.87;100.00;100051.69;5127834;29;20160;-87
2022/11/19 00:59:06;;;;;;;7.38;3.53;;;9.90;99.90;;;9.90;100.00;100062.16;5127843;28;20050;-86
2022/11/19 01:01:39;;;;;;;6.43;4.03;;;10.00;99.90;;;9.88;100.00;100053.44;5127899;28;20454;-87
2022/11/19 01:04:11;;;;;;;6.57;3.50;;;9.90;99.90;;;9.87;100.00;100061.22;5127960;29;20059;-86
2022/11/19 01:06:45;;;;;;;7.15;3.35;;;9.90;99.90;;;9.86;100.00;100060.34;5127244;28;20454;-87
2022/11/19 01:09:17;;;;;;;6.15;2.97;;;9.90;99.90;;;9.86;100.00;100057.72;5128198;29;20055;-86
2022/11/19 01:11:49;;;;;;;6.40;3.28;;;9.90;99.90;;;9.82;100.00;100055.88;5127255;28;20118;-88
2022/11/19 01:14:21;;;;;;;7.50;3.22;;;9.90;99.90;;;9.83;100.00;100060.25;5126819;29;20047;-87
2022/11/19 01:16:53;;;;;;;5.95;3.28;;;9.90;99.90;;;9.84;100.00;100066.31;5127167;29;20065;-87
2022/11/19 01:19:25;;;;;;;6.75;3.45;;;9.90;99.90;;;9.82;100.00;100061.09;5126439;29;20051;-88
2022/11/19 01:21:59;;;;;;;6.13;3.00;;;9.90;99.90;;;9.84;100.00;100072.41;5126760;29;20147;-87
2022/11/19 01:24:31;;;;;;;4.93;2.65;;;9.90;99.90;;;9.87;100.00;100066.44;5126198;28;20063;-87
2022/11/19 01:27:04;;;;;;;7.70;3.25;;;9.90;99.90;;;9.85;100.00;100071.59;5126343;28;20119;-89
2022/11/19 01:29:36;;;;;;;5.28;2.90;;;9.90;99.90;;;9.85;100.00;100069.00;5128070;28;20054;-88
2022/11/19 01:32:08;;;;;;;7.57;3.60;;;9.90;99.90;;;9.85;100.00;100073.31;5130238;29;20058;-88
2022/11/19 01:34:40;;;;;;;5.50;3.30;;;9.90;99.90;;;9.86;100.00;100069.88;5130568;28;20140;-86
2022/11/19 01:37:14;;;;;;;4.85;2.83;;;9.90;99.90;;;9.86;100.00;100075.06;5130421;28;20502;-88
2022/11/19 01:39:46;;;;;;;6.10;3.05;;;9.90;99.90;;;9.87;100.00;100066.44;5130559;28;20054;-87
2022/11/19 01:45:26;;;;;;;6.22;2.80;;;9.90;99.90;;;9.90;100.00;100075.19;5129390;28;20051;-87
2022/11/19 01:48:03;;;;;;;5.32;2.65;;;9.90;99.90;;;9.92;100.00;100083.94;5131510;28;20051;-87
2022/11/19 01:50:43;;;;;;;5.78;2.70;;;9.90;99.90;;;9.93;100.00;100071.78;5130180;29;20050;-87
2022/11/19 01:53:18;;;;;;;5.13;2.63;;;10.00;99.90;;;9.92;100.00;100076.13;5130617;29;20055;-87
2022/11/19 01:55:52;;;;;;;6.80;3.90;;;9.90;99.90;;;9.88;100.00;100071.66;5130161;28;20418;-88
2022/11/19 01:58:25;;;;;;;6.88;3.63;;;9.90;99.90;;;9.89;100.00;100086.44;5130849;28;20471;-88
2022/11/19 02:00:57;;;;;;;7.40;3.25;;;9.90;99.90;;;9.85;100.00;100084.63;5129715;29;20043;-88
2022/11/19 02:03:31;;;;;;;6.57;3.22;;;9.90;99.90;;;9.84;100.00;100092.34;5130349;28;20054;-88
2022/11/19 02:06:04;;;;;;;7.55;3.40;;;9.90;99.90;;;9.82;100.00;100089.72;5129556;28;20059;-88
2022/11/19 02:08:41;;;;;;;6.75;3.45;;;9.90;99.90;;;9.81;100.00;100093.16;5130022;28;20058;-87
2022/11/19 02:12:02;;;;;;;7.65;3.10;;;9.90;99.90;;;9.79;100.00;100090.53;5130363;29;20063;-89
2022/11/19 02:15:01;;;;;;;5.60;2.95;;;9.90;99.90;;;9.82;100.00;100091.44;5124010;28;20053;-88
2022/11/19 02:18:07;;;;;;;6.13;2.88;;;9.90;99.90;;;9.83;100.00;100098.41;5129814;29;20126;-86
2022/11/19 02:21:07;;;;;;;7.57;3.95;;;9.90;99.90;;;9.79;100.00;100097.47;5130338;28;20051;-87
2022/11/19 02:24:09;;;;;;;7.63;3.50;;;9.90;99.90;;;9.76;100.00;100095.63;5129863;29;20051;-87
2022/11/19 02:27:31;;;;;;;8.15;3.58;;;9.80;99.90;;;9.69;100.00;100088.50;5129773;28;20114;-88
2022/11/19 02:30:15;;;;;;;6.97;2.92;;;9.80;99.90;;;9.64;100.00;100097.03;5127548;28;20047;-87
2022/11/19 02:33:06;;;;;;;5.07;3.13;;;9.80;99.90;;;9.62;100.00;100102.19;5129785;29;20051;-88
2022/11/19 02:35:49;;;;;;;5.78;2.60;;;9.80;99.90;;;9.63;100.00;100103.06;5130302;29;20047;-88
2022/11/19 02:38:31;;;;;;;4.93;2.60;;;9.70;99.90;;;9.65;100.00;100101.38;5128765;29;20051;-88
2022/11/19 02:46:55;;;;;;;5.20;3.10;;;9.70;99.90;;;9.45;100.00;100098.22;5097593;29;20055;-88
2022/11/19 02:49:32;;;;;;;3.92;2.85;;;9.60;99.90;;;9.34;100.00;100097.94;5128589;28;20435;-87
2022/11/19 02:52:05;;;;;;;3.97;2.17;;;9.60;99.90;;;9.40;100.00;100105.94;5129902;28;20590;-88
2022/11/19 02:54:37;;;;;;;5.13;2.80;;;9.60;99.90;;;9.39;100.00;100104.19;5130917;28;20043;-88
2022/11/19 02:57:11;;;;;;;4.43;2.60;;;9.60;99.90;;;9.33;100.00;100108.31;5128494;28;20066;-86
2022/11/19 03:05:39;;;;;;;4.20;2.55;;;9.50;99.90;;;9.30;100.00;100103.00;5128795;28;20052;-88
2022/11/19 03:08:11;;;;;;;3.80;2.25;;;9.50;99.90;;;9.23;100.00;100100.22;5128502;28;20051;-87
2022/11/19 03:10:53;;;;;;;3.08;2.08;;;9.40;99.90;;;9.17;100.00;100102.66;5128771;28;20051;-87
2022/11/19 03:16:43;;;;;;;3.55;2.10;;;9.30;99.90;;;9.00;100.00;100098.69;5128383;29;20054;-87
2022/11/19 03:19:36;;;;;;;3.05;1.90;;;9.30;99.90;;;8.97;100.00;100117.66;5128166;28;20451;-88
2022/11/19 03:22:15;;;;;;;3.25;1.70;;;9.20;99.90;;;8.95;100.00;100106.34;5128752;29;20083;-87
2022/11/19 03:24:55;;;;;;;2.80;1.70;;;9.20;99.90;;;8.88;100.00;100109.59;5128293;28;20489;-88
2022/11/19 03:27:33;;;;;;;2.20;1.52;;;9.20;99.90;;;8.88;100.00;100108.72;5127625;28;20146;-90
2022/11/19 03:30:07;;;;;;;1.95;1.52;;;9.10;99.90;;;8.87;100.00;100113.03;5112285;29;20649;-88
2022/11/19 03:32:44;;;;;;;2.45;1.45;;;9.10;99.90;;;8.83;100.00;100110.28;5128037;28;20441;-87
2022/11/19 03:35:24;;;;;;;1.27;1.08;;;9.10;99.90;;;8.67;100.00;100108.91;5128092;29;20063;-87
2022/11/19 03:38:02;;;;;;;1.70;1.00;;;9.00;99.90;;;8.59;100.00;100111.25;5128319;28;20054;-85
2022/11/19 03:40:35;;;;;;;1.85;1.10;;;8.90;99.90;;;8.53;100.00;100115.38;5129213;28;20518;-87
2022/11/19 03:43:11;;;;;;;1.30;0.80;;;8.80;99.90;;;8.34;100.00;100113.88;5128368;29;20089;-87
2022/11/19 03:45:45;;;;;;;0.90;0.90;;;8.70;99.90;;;8.16;100.00;100127.16;5127809;28;20066;-90
2022/11/19 03:48:22;;;;;;;2.15;1.00;;;8.60;99.90;;;8.16;100.00;100130.63;5127991;28;20051;-87
2022/11/19 03:51:03;;;;;;;1.27;0.93;;;8.50;99.90;;;8.09;100.00;100128.66;5128154;28;20079;-87
2022/11/19 03:53:36;;;;;;;0.90;0.82;;;8.40;99.90;;;8.04;100.00;100145.78;5128023;28;20355;-87
2022/11/19 03:56:12;;;;;;;1.05;0.75;;;8.40;99.90;;;7.91;100.00;100148.78;5128258;29;20053;-89
2022/11/19 03:58:46;;;;;;;0.82;0.60;;;8.30;99.90;;;7.69;100.00;100141.91;5128150;28;20051;-87
2022/11/19 04:01:19;;;;;;;0.85;0.63;;;8.20;99.90;;;7.62;100.00;100150.31;5128555;28;20047;-87
2022/11/19 04:06:42;;;;;;;1.13;0.70;;;7.90;99.90;;;7.38;100.00;100159.81;5127801;28;20144;-87
2022/11/19 04:09:15;;;;;;;0.60;0.60;;;7.80;99.90;;;7.29;100.00;100158.59;5127061;28;20150;-87
2022/11/19 04:11:47;;;;;;;0.55;0.45;;;7.70;99.90;;;7.13;100.00;100152.81;5128642;29;20065;-87
2022/11/19 04:14:19;;;;;;;0.50;0.50;;;7.60;99.90;;;7.10;100.00;100171.69;5128323;28;20155;-88
2022/11/19 04:16:51;;;;;;;0.85;0.70;;;7.50;99.90;;;6.97;100.00;100169.44;5127153;28;20058;-89
2022/11/19 04:19:24;;;;;;;1.25;0.90;;;7.50;99.90;;;6.90;100.00;100167.44;5127575;28;20047;-88
2022/11/19 04:21:57;;;;;;;1.20;0.70;;;7.30;99.90;;;6.89;100.00;100168.28;5127943;29;20173;-88
2022/11/19 04:24:30;;;;;;;1.58;1.00;;;7.30;99.90;;;6.83;100.00;100180.97;5128096;29;20051;-88
2022/11/19 04:27:02;;;;;;;2.83;0.90;;;7.20;99.90;;;6.83;100.00;100184.44;5127487;28;20051;-88
2022/11/19 04:29:35;;;;;;;1.85;1.00;;;7.20;99.90;;;6.83;100.00;100184.44;5127355;29;20422;-87
2022/11/19 04:32:07;;;;;;;1.45;1.00;;;7.20;99.90;;;6.63;100.00;100191.41;5130474;28;20084;-88
2022/11/19 04:34:39;;;;;;;1.35;0.95;;;7.10;99.90;;;6.44;100.00;100194.06;5130246;29;20051;-88
2022/11/19 04:37:12;;;;;;;2.33;1.13;;;7.00;99.90;;;6.39;100.00;100191.31;5129539;28;20421;-88
2022/11/19 04:39:44;;;;;;;1.98;1.23;;;6.80;99.90;;;6.25;100.00;100182.94;5128821;29;20051;-90
2022/11/19 04:42:16;;;;;;;2.42;1.20;;;6.70;99.90;;;6.22;100.00;100193.19;5128526;28;20055;-87
2022/11/19 04:44:49;;;;;;;3.25;1.52;;;6.70;99.90;;;6.09;100.00;100195.19;5128717;28;20141;-87
2022/11/19 04:47:21;;;;;;;3.03;1.50;;;6.60;99.90;;;6.07;100.00;100197.72;5128122;28;20058;-89
2022/11/19 04:49:53;;;;;;;3.25;1.80;;;6.60;99.90;;;5.93;100.00;100194.53;5128645;29;20119;-88
2022/11/19 04:52:27;;;;;;;2.72;1.60;;;6.50;99.90;;;5.97;100.00;100206.75;5128663;28;20115;-88
2022/11/19 04:54:59;;;;;;;3.33;1.63;;;6.40;99.90;;;5.95;100.00;100202.34;5128072;28;20086;-88
2022/11/19 04:57:31;;;;;;;4.90;2.00;;;6.50;99.90;;;5.92;100.00;100203.06;5129411;29;20054;-88
2022/11/19 05:00:05;;;;;;;4.38;2.17;;;6.50;99.90;;;5.95;100.00;100203.22;5128417;28;20051;-88
2022/11/19 05:02:38;;;;;;;4.85;2.30;;;6.40;99.90;;;5.89;100.00;100202.03;5129784;28;20070;-88
2022/11/19 05:05:10;;;;;;;5.43;2.20;;;6.40;99.90;;;5.84;100.00;100208.72;5133153;28;20097;-89
2022/11/19 05:07:44;;;;;;;4.75;2.22;;;6.40;99.90;;;5.76;100.00;100210.06;5165745;23;20050;-72
2022/11/19 05:10:17;;;;;;;4.75;2.10;;;6.20;99.90;;;5.77;100.00;100211.84;5146172;28;20053;-75
2022/11/19 05:12:49;;;;;;;4.90;2.20;;;6.20;99.90;;;5.82;100.00;100213.81;5146730;28;20049;-74
2022/11/19 05:15:22;;;;;;;5.70;2.40;;;6.20;99.90;;;5.86;100.00;100205.34;5147216;28;20129;-72
2022/11/19 05:17:55;;;;;;;5.05;2.50;;;6.30;99.90;;;5.81;100.00;100204.31;5147189;28;20085;-73
2022/11/19 05:20:27;;;;;;;4.35;2.33;;;6.20;99.90;;;5.77;100.00;100206.66;5147429;28;20070;-72
2022/11/19 05:23:00;;;;;;;4.78;2.30;;;6.20;99.90;;;5.73;100.00;100216.88;5146098;28;20043;-72
2022/11/19 05:25:32;;;;;;;5.72;2.28;;;6.20;99.90;;;5.74;100.00;100215.19;5165182;28;20064;-72
2022/11/19 05:28:05;;;;;;;5.85;2.40;;;6.20;99.90;;;5.82;100.00;100228.47;5167669;28;20074;-72
2022/11/19 05:30:38;;;;;;;4.43;2.08;;;6.20;99.90;;;5.78;100.00;100223.94;5166036;28;20046;-74
2022/11/19 05:33:10;;;;;;;5.15;2.20;;;6.20;99.90;;;5.82;100.00;100228.47;5167411;28;20050;-73
2022/11/19 05:35:42;;;;;;;4.40;2.20;;;6.20;99.90;;;5.88;100.00;100234.78;5167477;28;20042;-73
2022/11/19 05:38:16;;;;;;;6.15;2.97;;;6.20;99.90;;;5.91;100.00;100247.00;5167143;28;20062;-74
2022/11/19 05:40:48;;;;;;;4.80;2.40;;;6.30;99.90;;;5.95;100.00;100251.50;5167430;28;20060;-74
2022/11/19 05:43:20;;;;;;;4.75;2.50;;;6.30;99.90;;;5.98;100.00;100255.09;5166903;28;20049;-73
2022/11/19 05:45:52;;;;;;;6.78;3.05;;;6.40;99.90;;;6.00;100.00;100262.94;5166929;28;20044;-74
2022/11/19 05:48:24;;;;;;;5.93;2.67;;;6.30;99.90;;;6.03;100.00;100263.06;5166702;28;20038;-75
2022/11/19 05:50:57;;;;;;;7.85;3.58;;;6.40;99.90;;;6.02;100.00;100266.47;5165629;28;20061;-75
2022/11/19 05:53:30;;;;;;;8.20;3.95;;;6.40;99.90;;;5.69;100.00;100266.69;5166580;28;20035;-73
2022/11/19 05:56:03;;;;;;;8.88;4.28;;;6.20;99.90;;;5.57;100.00;100268.72;5166705;28;20046;-74
2022/11/19 05:58:35;;;;;;;9.40;4.25;;;6.00;99.90;;;5.45;100.00;100268.13;5166574;28;20050;-73
2022/11/19 06:01:07;;;;;;;11.27;4.68;;;5.90;99.90;;;5.36;100.00;100270.31;5166631;28;20046;-75
2022/11/19 06:03:40;;;;;;;11.25;4.45;;;5.80;99.90;;;5.16;100.00;100272.81;5166638;28;20046;-73
2022/11/19 06:06:12;;;;;;;10.23;4.38;;;5.70;99.90;;;5.13;100.00;100282.13;5166633;28;20039;-73
2022/11/19 06:08:47;;;;;;;10.45;5.03;;;5.60;99.90;;;5.14;100.00;100281.28;5166593;28;20688;-72
2022/11/19 06:14:05;;;;;;;13.18;4.85;;;5.60;99.90;;;5.00;100.00;100279.75;5152284;28;20093;-74
2022/11/19 06:16:37;;;;;;;11.65;4.95;;;5.50;99.90;;;4.89;100.00;100284.41;5165791;28;20045;-72
2022/11/19 06:19:10;;;;;;;13.40;5.60;;;5.40;99.90;;;4.83;100.00;100291.84;5166233;28;20510;-72
2022/11/19 06:21:43;;;;;;;10.20;4.88;;;5.30;99.90;;;4.89;100.00;100298.22;5165045;28;20050;-72
2022/11/19 06:24:17;;;;;;;11.93;5.63;;;5.40;99.90;;;4.93;100.00;100294.06;5164899;28;20058;-73
2022/11/19 06:26:49;;;;;;;12.13;5.38;;;5.40;99.90;;;4.95;100.00;100296.72;5165073;28;20073;-75
2022/11/19 06:29:21;;;;;;;11.43;5.25;;;5.40;99.90;;;5.00;100.00;100300.41;5164549;28;20061;-73
2022/11/19 06:31:54;;;;;;;12.38;5.30;;;5.50;99.90;;;5.01;100.00;100307.34;5165124;28;20050;-73
2022/11/19 06:34:26;;;;;;;14.13;6.68;;;5.50;99.90;;;4.97;100.00;100310.63;5165968;28;20056;-73
2022/11/19 06:36:58;;;;;;;11.88;5.47;;;5.40;99.90;;;4.98;100.00;100314.97;5166169;28;20042;-71
2022/11/19 06:39:32;;;;;;;14.45;6.10;;;5.40;99.90;;;4.90;100.00;100319.75;5166016;28;20411;-72
2022/11/19 06:44:51;;;;;;;16.48;6.40;;;5.40;99.90;;;4.86;100.00;100331.63;5165190;28;20057;-73
2022/11/19 06:47:23;;;;;;;14.85;6.80;;;5.40;99.90;;;4.77;100.00;100333.75;5165660;28;20038;-73
2022/11/19 06:49:55;;;;;;;15.27;6.47;;;5.30;99.90;;;4.81;100.00;100340.81;5165737;28;20049;-74
2022/11/19 06:52:29;;;;;;;16.10;6.57;;;5.30;99.90;;;4.84;100.00;100345.28;5165889;28;20403;-74
2022/11/19 06:55:02;;;;;;;13.50;5.88;;;5.30;99.90;;;4.85;100.00;100336.72;5165650;28;20039;-72
2022/11/19 06:57:34;;;;;;;12.70;6.15;;;5.30;99.90;;;4.83;100.00;100348.66;5165424;28;20054;-75
2022/11/19 07:00:08;;;;;;;15.50;6.63;;;5.30;99.90;;;4.68;100.00;100351.34;5165774;28;20046;-58
2022/11/19 07:02:40;;;;;;;13.48;5.78;;;5.20;99.90;;;4.77;100.00;100358.69;5165318;28;20491;-59
2022/11/19 07:05:13;;;;;;;13.30;6.13;;;5.20;99.90;;;4.87;100.00;100360.91;5165422;28;20448;-56
2022/11/19 07:07:45;;;;;;;14.88;6.05;;;5.30;99.90;;;4.99;100.00;100369.28;5165285;28;20046;-57
2022/11/19 07:10:19;;;;;;;16.23;6.82;;;5.40;99.90;;;5.02;100.00;100365.94;5165133;28;20057;-58
2022/11/19 07:12:51;;;;;;;16.08;6.50;;;5.40;99.90;;;5.03;100.00;100373.78;5164642;28;20435;-58
2022/11/19 07:15:23;;;;;;;15.80;6.80;;;5.40;99.90;;;4.98;100.00;100376.94;5165099;28;20145;-58
2022/11/19 07:17:55;;;;;;;17.75;7.88;;;5.40;99.90;;;4.87;100.00;100377.28;5165280;28;20510;-58
2022/11/19 07:20:27;;;;;;;15.30;7.20;;;5.30;99.90;;;4.85;100.00;100378.03;5164915;28;20050;-57
2022/11/19 07:23:00;;;;;;;17.95;6.80;;;5.30;99.90;;;4.88;100.00;100384.22;5165137;28;20053;-56
2022/11/19 07:25:33;;;;;;;15.10;7.20;;;5.30;99.90;;;4.85;100.00;100385.78;5165161;28;20525;-56
2022/11/19 07:28:05;;;;;;;15.45;6.80;;;5.30;99.90;;;4.80;100.00;100382.06;5156504;28;20403;-56
2022/11/19 07:30:37;;;;;;;16.08;6.60;;;5.30;99.90;;;4.77;100.00;100390.56;5144877;28;20050;-55
2022/11/19 07:33:09;;;;;;;17.92;7.40;;;5.20;99.90;;;4.70;100.00;100391.06;5144443;28;20680;-57
2022/11/19 07:35:41;;;;;;;18.23;7.18;;;5.20;99.90;;;4.74;100.00;100389.50;5144882;28;20530;-57
2022/11/19 07:38:13;;;;;;;18.88;8.13;;;5.20;99.90;;;4.76;100.00;100395.63;5143206;28;20061;-57
2022/11/19 07:40:54;;;;;;;15.85;7.13;;;5.20;99.90;;;4.76;100.00;100393.94;5144902;28;20057;-58
2022/11/19 07:43:25;;;;;;;16.80;7.43;;;5.20;99.90;;;4.62;100.00;100397.47;5145243;28;20054;-56
2022/11/19 07:45:57;;;;;;;15.48;7.45;;;5.10;99.90;;;4.69;100.00;100401.28;5145022;28;20039;-57
2022/11/19 07:48:29;;;;;;;19.30;7.47;;;5.10;99.90;;;4.69;100.00;100415.06;5144860;28;20046;-58
2022/11/19 07:51:01;;;;;;;17.85;7.22;;;5.10;99.90;;;4.73;100.00;100418.72;5144963;28;20106;-57
2022/11/19 07:53:33;;;;;;;18.10;7.53;;;5.20;99.90;;;4.74;100.00;100420.47;5144641;28;20053;-59
2022/11/19 07:56:07;;;;;;;14.35;6.95;;;5.20;99.90;;;4.80;100.00;100420.81;5144840;28;20399;-59
2022/11/19 07:58:39;;;;;;;18.40;8.48;;;5.20;99.90;;;4.74;100.00;100425.66;5144746;28;20534;-59
2022/11/19 08:01:17;;;;;;;18.02;7.78;;;5.20;99.90;;;4.77;100.00;100426.72;5144799;28;20283;-60
2022/11/19 08:03:51;;;;;;;16.88;7.50;;;5.20;99.90;;;4.84;100.00;100428.78;5150522;28;20105;-58
2022/11/19 08:06:26;;;;;;;20.02;8.40;;;5.20;99.90;;;4.75;100.00;100435.16;5135080;28;20508;-58
2022/11/19 08:08:58;;;;;;;19.60;7.97;;;5.20;99.90;;;4.70;100.00;100429.78;5157652;28;20422;-57
2022/11/19 08:11:32;;;;;;;17.20;7.32;;;5.10;99.90;;;4.74;100.00;100425.66;5164561;28;20054;-57
2022/11/19 08:14:04;;;;;;;17.08;7.90;;;5.20;99.90;;;4.74;100.00;100425.66;5140974;28;20047;-57
2022/11/19 08:19:25;;;;;;;17.42;7.40;;;5.20;99.90;;;4.94;100.00;100439.59;5124542;29;20416;-59
2022/11/19 08:21:58;;;;;;;18.60;7.97;;;5.30;99.90;;;4.99;100.00;100446.78;5124631;29;20539;-58
2022/11/19 08:24:30;;;;;;;20.00;7.88;;;5.40;99.90;;;4.97;100.00;100445.81;5124126;29;20058;-57
2022/11/19 08:27:04;;;;;;;20.02;7.65;;;5.40;99.90;;;4.88;100.00;100453.06;5124357;29;20047;-58
2022/11/19 08:29:36;;;;;;;19.08;8.55;;;5.30;99.90;;;4.73;100.00;100454.88;5124534;29;20467;-59
2022/11/19 08:32:08;;;;;;;17.92;7.85;;;5.20;99.90;;;4.77;100.00;100446.47;5124510;29;20059;-59
2022/11/19 08:34:40;;;;;;;16.65;7.35;;;5.20;99.90;;;4.75;100.00;100450.66;5124860;28;20047;-55
2022/11/19 08:37:12;;;;;;;14.55;6.70;;;5.20;99.90;;;4.81;100.00;100458.72;5123885;28;20051;-58
2022/11/19 08:39:45;;;;;;;18.73;7.10;;;5.20;99.90;;;4.88;100.00;100460.81;5124108;29;20055;-58
2022/11/19 08:45:22;;;;;;;16.08;6.78;;;5.30;99.90;;;4.96;100.00;100464.72;5082216;29;20048;-56
2022/11/19 08:47:54;;;;;;;17.20;7.05;;;5.40;99.90;;;5.06;100.00;100466.94;5082334;29;20051;-59
2022/11/19 08:50:28;;;;;;;16.60;7.28;;;5.40;99.90;;;5.02;100.00;100464.09;5104084;29;20063;-58
2022/11/19 08:53:02;;;;;;;15.75;5.95;;;5.40;99.90;;;5.01;100.00;100467.50;5129965;28;20066;-57
2022/11/19 08:55:34;;;;;;;13.93;5.97;;;5.40;99.90;;;5.09;100.00;100463.66;5143712;28;20046;-58
2022/11/19 08:58:08;;;;;;;15.52;7.15;;;5.50;99.90;;;5.08;100.00;100461.84;5143841;28;20043;-56
2022/11/19 09:00:40;;;;;;;15.70;6.53;;;5.50;99.90;;;5.07;100.00;100460.97;5143968;28;20053;-61
2022/11/19 09:03:13;;;;;;;16.83;6.97;;;5.50;99.90;;;5.08;100.00;100462.72;5143679;28;20435;-57
2022/11/19 09:05:45;;;;;;;15.88;7.38;;;5.50;99.90;;;4.99;100.00;100470.03;5143498;28;20047;-56
2022/11/19 09:08:17;;;;;;;14.30;6.45;;;5.40;99.90;;;4.88;100.00;100472.03;5143272;28;20097;-55
2022/11/19 09:10:49;;;;;;;12.02;5.53;;;5.40;99.90;;;4.93;100.00;100474.88;5143713;28;20053;-56
2022/11/19 09:13:23;;;;;;;15.82;6.40;;;5.40;99.90;;;4.95;100.00;100478.41;5143658;28;20520;-59
2022/11/19 09:15:55;;;;;;;12.68;5.65;;;5.40;99.90;;;4.97;100.00;100481.97;5143594;28;20053;-58
2022/11/19 09:18:27;;;;;;;12.07;5.80;;;5.40;99.90;;;5.06;100.00;100492.78;5134098;28;20043;-57
2022/11/19 09:21:00;;;;;;;16.73;7.00;;;5.50;99.90;;;5.11;100.00;100478.41;5140535;28;20035;-60
2022/11/19 09:23:32;;;;;;;13.95;5.70;;;5.50;99.90;;;5.17;100.00;100489.06;5143673;28;20050;-57
2022/11/19 09:26:07;;;;;;;15.30;6.85;;;5.50;99.90;;;5.13;100.00;100484.53;5127717;28;20039;-57
2022/11/19 09:28:41;;;;;;;10.65;4.70;;;5.50;99.90;;;5.84;100.00;100485.47;5129391;28;20046;-58
2022/11/19 09:31:16;;;;;;;13.40;5.72;;;6.20;99.90;;;6.12;100.00;100483.44;5137144;28;20126;-57
2022/11/19 09:33:50;;;;;;;13.07;5.30;;;6.50;99.90;;;6.11;100.00;100493.72;5137961;28;20046;-59
2022/11/19 09:36:23;;;;;;;14.63;5.60;;;6.50;99.90;;;6.18;100.00;100507.00;5124615;28;20357;-59
2022/11/19 09:38:57;;;;;;;12.20;5.32;;;6.60;99.90;;;5.96;100.00;100510.28;5123550;29;20054;-60
2022/11/19 09:41:48;;;;;;;10.77;4.93;;;6.50;99.90;;;5.84;100.00;100508.75;5123463;28;20119;-60
2022/11/19 09:44:40;;;;;;;13.57;6.10;;;6.30;99.90;;;5.83;100.00;100518.22;5123574;28;20054;-61
2022/11/19 09:47:26;;;;;;;13.10;5.57;;;6.30;99.90;;;5.67;100.00;100526.94;5122206;29;20133;-59
2022/11/19 09:50:12;;;;;;;11.93;4.97;;;6.10;99.90;;;5.68;100.00;100541.63;5124333;28;20051;-59
2022/11/19 09:52:49;;;;;;;12.25;5.38;;;6.10;99.90;;;5.69;100.00;100535.66;5133824;28;20047;-58
2022/11/19 09:55:29;;;;;;;11.43;5.32;;;6.00;99.90;;;5.63;100.00;100535.34;5141581;28;20043;-60
2022/11/19 09:58:07;;;;;;;13.00;5.40;;;6.00;99.90;;;5.50;100.00;100527.78;5137915;28;20126;-60
2022/11/19 10:00:40;;;;;;;11.98;5.43;;;5.90;99.90;;;5.47;100.00;100532.78;5139883;28;20050;-59
2022/11/19 10:03:17;;;;;;;12.73;5.38;;;5.80;99.90;;;5.46;100.00;100536.16;5155435;28;20050;-58
2022/11/19 10:06:10;;;;;;;12.38;5.20;;;5.80;99.90;;;5.47;100.00;100543.13;5154946;28;20054;-58
2022/11/19 10:09:03;;;;;;;12.85;5.50;;;5.80;99.90;;;5.39;100.00;100549.59;5147786;28;20047;-58
2022/11/19 10:11:50;;;;;;;13.00;5.20;;;5.80;99.90;;;5.38;100.00;100553.00;5128510;28;20053;-59
2022/11/19 10:14:48;;;;;;;12.50;5.30;;;5.80;99.90;;;5.43;100.00;100547.25;5127564;29;20078;-57
2022/11/19 10:17:36;;;;;;;16.33;6.78;;;5.80;99.90;;;5.48;100.00;100533.66;5127812;29;20050;-58
2022/11/19 10:20:37;;;;;;;13.48;5.32;;;5.80;99.90;;;5.49;100.00;100538.03;5128101;29;20512;-60
2022/11/19 10:23:15;;;;;;;;;;;5.80;99.90;;;5.44;100.00;100538.69;5127540;28;20051;-59
2022/11/19 10:25:49;;;;;;;13.63;6.05;;;5.80;99.90;;;5.43;100.00;100548.97;5126478;29;19933;-60
2022/11/19 10:28:26;;;;;;;12.95;5.38;;;5.80;99.90;;;5.33;100.00;100544.09;5126689;29;20054;-59
2022/11/19 10:31:07;;;;;;;13.55;5.60;;;5.80;99.90;;;5.39;100.00;100549.59;5126472;29;20050;-59
2022/11/19 10:33:49;;;;;;;12.48;5.47;;;5.80;99.90;;;5.48;100.00;100560.44;5126276;29;20049;-57
2022/11/19 10:36:23;;;;;;;;;;;5.80;99.90;;;5.42;100.00;100567.88;5141516;28;20047;-57
2022/11/19 10:39:02;;;;;;;14.05;5.53;;;5.80;99.90;;;5.40;100.00;100572.03;5126440;29;20379;-59
2022/11/19 10:41:40;;;;;;;12.98;5.25;;;5.80;99.90;;;5.35;100.00;100568.38;5141286;28;20059;-59
2022/11/19 10:44:40;;;;;;;14.32;5.65;;;5.80;99.90;;;5.30;100.00;100568.13;5126226;29;20523;-59
2022/11/19 10:47:18;;;;;;;12.90;5.30;;;5.70;99.90;;;5.34;100.00;100566.56;5126580;29;20046;-59
2022/11/19 10:49:54;;;;;;;12.73;5.28;;;5.70;99.90;;;5.35;100.00;100558.03;5143277;28;20097;-59
2022/11/19 10:52:31;;;;;;;14.63;5.80;;;5.70;99.90;;;5.28;100.00;100559.41;5146221;28;20054;-59
2022/11/19 10:55:18;;;;;;;12.63;5.13;;;5.70;99.90;;;5.27;100.00;100554.13;5146204;28;20043;-59
2022/11/19 10:57:52;;;;;;;13.25;5.00;;;5.70;99.90;;;5.28;100.00;100550.72;5145758;28;20038;-59
2022/11/19 11:00:24;;;;;;;11.23;4.97;;;5.70;99.90;;;5.31;100.00;100550.91;5146249;28;20067;-59
2022/11/19 11:03:01;;;;;;;12.85;5.70;;;5.70;99.90;;;5.25;100.00;100555.75;5145662;28;20288;-58
2022/11/19 11:05:56;;;;;;;13.30;4.88;;;5.70;99.90;;;5.30;100.00;100549.13;5146269;28;20058;-59
2022/11/19 11:08:30;;;;;;;12.55;5.38;;;5.70;99.90;;;5.23;100.00;100547.03;5310492;23;20522;-60
2022/11/19 11:11:02;;;;;;;11.98;5.18;;;5.70;99.90;;;5.27;100.00;100549.84;5144422;28;20047;-60
2022/11/19 11:16:44;;;;;;;12.07;4.97;;;5.70;99.90;;;5.46;100.00;100551.69;5144951;28;20049;-59
2022/11/19 11:19:19;;;;;;;10.98;4.70;;;5.80;99.90;;;5.60;100.00;100548.09;5144472;28;20074;-59
2022/11/19 11:21:54;;;;;;;13.30;5.07;;;5.90;99.90;;;5.69;100.00;100550.28;5144393;28;20051;-59
2022/11/19 11:24:33;;;;;;;14.05;5.53;;;6.00;99.90;;;5.73;100.00;100557.34;5149563;28;20500;-58
2022/11/19 11:27:24;;;;;;;11.25;4.80;;;6.10;99.90;;;5.78;100.00;100560.19;5163936;28;20053;-58